sensor_id;sensor_type;location;lat;lon;timestamp;P1;durP1;ratioP1;P2;durP2;ratioP2
32228;SDS011;18717;48.034;11.186;2023-08-07T00:00:43;8.75;;;8.35;;
32228;SDS011;18717;48.034;11.186;2023-08-07T00:03:11;8.88;;;8.48;;
32228;SDS011;18717;48.034;11.186;2023-08-07T00:05:44;9.55;;;9.05;;
32228;SDS011;18717;48.034;11.186;2023-08-07T00:08:14;8.88;;;8.48;;
32228;SDS011;18717;48.034;11.186;2023-08-07T00:10:41;9.15;;;8.75;;
32228;SDS011;18717;48.034;11.186;2023-08-07T00:13:09;9.25;;;8.75;;
32228;SDS011;18717;48.034;11.186;2023-08-07T00:15:37;9.07;;;8.68;;
32228;SDS011;18717;48.034;11.186;2023-08-07T00:18:05;9.73;;;9.15;;
32228;SDS011;18717;48.034;11.186;2023-08-07T00:20:33;9.05;;;8.55;;
32228;SDS011;18717;48.034;11.186;2023-08-07T00:23:00;9.23;;;8.73;;
32228;SDS011;18717;48.034;11.186;2023-08-07T00:25:29;9.77;;;9.00;;
32228;SDS011;18717;48.034;11.186;2023-08-07T00:27:57;9.68;;;9.02;;
32228;SDS011;18717;48.034;11.186;2023-08-07T00:30:25;9.32;;;8.75;;
32228;SDS011;18717;48.034;11.186;2023-08-07T00:32:52;8.80;;;8.40;;
32228;SDS011;18717;48.034;11.186;2023-08-07T00:35:21;8.90;;;8.40;;
32228;SDS011;18717;48.034;11.186;2023-08-07T00:37:49;8.95;;;8.43;;
32228;SDS011;18717;48.034;11.186;2023-08-07T00:40:17;9.18;;;8.68;;
32228;SDS011;18717;48.034;11.186;2023-08-07T00:42:46;9.48;;;8.70;;
32228;SDS011;18717;48.034;11.186;2023-08-07T00:45:13;9.55;;;8.90;;
32228;SDS011;18717;48.034;11.186;2023-08-07T00:47:41;9.60;;;9.10;;
32228;SDS011;18717;48.034;11.186;2023-08-07T00:50:09;9.10;;;8.60;;
32228;SDS011;18717;48.034;11.186;2023-08-07T00:52:37;9.93;;;8.57;;
32228;SDS011;18717;48.034;11.186;2023-08-07T00:55:05;8.90;;;8.50;;
32228;SDS011;18717;48.034;11.186;2023-08-07T00:57:33;9.05;;;8.45;;
32228;SDS011;18717;48.034;11.186;2023-08-07T01:00:02;9.23;;;8.68;;
32228;SDS011;18717;48.034;11.186;2023-08-07T01:02:31;9.07;;;8.57;;
32228;SDS011;18717;48.034;11.186;2023-08-07T01:04:59;9.27;;;8.88;;
32228;SDS011;18717;48.034;11.186;2023-08-07T01:07:27;12.98;;;8.85;;
32228;SDS011;18717;48.034;11.186;2023-08-07T01:09:54;9.30;;;8.80;;
32228;SDS011;18717;48.034;11.186;2023-08-07T01:12:24;8.68;;;8.23;;
32228;SDS011;18717;48.034;11.186;2023-08-07T01:14:58;8.95;;;8.50;;
32228;SDS011;18717;48.034;11.186;2023-08-07T01:17:30;9.48;;;8.88;;
32228;SDS011;18717;48.034;11.186;2023-08-07T01:20:00;9.18;;;8.52;;
32228;SDS011;18717;48.034;11.186;2023-08-07T01:22:29;9.52;;;8.82;;
32228;SDS011;18717;48.034;11.186;2023-08-07T01:24:57;9.07;;;8.57;;
32228;SDS011;18717;48.034;11.186;2023-08-07T01:27:30;8.70;;;8.30;;
32228;SDS011;18717;48.034;11.186;2023-08-07T01:30:02;9.00;;;8.50;;
32228;SDS011;18717;48.034;11.186;2023-08-07T01:32:39;8.75;;;8.38;;
32228;SDS011;18717;48.034;11.186;2023-08-07T01:35:11;9.05;;;8.50;;
32228;SDS011;18717;48.034;11.186;2023-08-07T01:37:41;8.93;;;8.52;;
32228;SDS011;18717;48.034;11.186;2023-08-07T01:40:10;9.75;;;9.25;;
32228;SDS011;18717;48.034;11.186;2023-08-07T01:42:38;10.43;;;9.73;;
32228;SDS011;18717;48.034;11.186;2023-08-07T01:45:06;9.18;;;8.63;;
32228;SDS011;18717;48.034;11.186;2023-08-07T01:47:34;8.60;;;8.20;;
32228;SDS011;18717;48.034;11.186;2023-08-07T01:50:02;9.25;;;8.65;;
32228;SDS011;18717;48.034;11.186;2023-08-07T01:52:30;8.75;;;8.35;;
32228;SDS011;18717;48.034;11.186;2023-08-07T01:55:00;8.80;;;8.27;;
32228;SDS011;18717;48.034;11.186;2023-08-07T01:57:27;9.00;;;8.40;;
32228;SDS011;18717;48.034;11.186;2023-08-07T01:59:56;9.43;;;8.68;;
32228;SDS011;18717;48.034;11.186;2023-08-07T02:02:24;9.32;;;8.73;;
32228;SDS011;18717;48.034;11.186;2023-08-07T02:04:52;8.93;;;8.52;;
32228;SDS011;18717;48.034;11.186;2023-08-07T02:07:19;9.43;;;8.80;;
32228;SDS011;18717;48.034;11.186;2023-08-07T02:09:47;9.20;;;8.70;;
32228;SDS011;18717;48.034;11.186;2023-08-07T02:12:16;9.05;;;8.55;;
32228;SDS011;18717;48.034;11.186;2023-08-07T02:14:44;9.38;;;8.77;;
32228;SDS011;18717;48.034;11.186;2023-08-07T02:17:11;9.43;;;8.60;;
32228;SDS011;18717;48.034;11.186;2023-08-07T02:19:39;8.73;;;8.23;;
32228;SDS011;18717;48.034;11.186;2023-08-07T02:22:07;9.60;;;9.00;;
32228;SDS011;18717;48.034;11.186;2023-08-07T02:24:35;9.02;;;8.35;;
32228;SDS011;18717;48.034;11.186;2023-08-07T02:27:03;9.30;;;8.60;;
32228;SDS011;18717;48.034;11.186;2023-08-07T02:29:32;8.85;;;8.40;;
32228;SDS011;18717;48.034;11.186;2023-08-07T02:32:01;9.02;;;8.52;;
32228;SDS011;18717;48.034;11.186;2023-08-07T02:34:29;9.55;;;9.00;;
32228;SDS011;18717;48.034;11.186;2023-08-07T02:36:57;9.20;;;8.68;;
32228;SDS011;18717;48.034;11.186;2023-08-07T02:39:24;9.57;;;8.75;;
32228;SDS011;18717;48.034;11.186;2023-08-07T02:41:52;9.20;;;8.70;;
32228;SDS011;18717;48.034;11.186;2023-08-07T02:44:20;9.50;;;8.70;;
32228;SDS011;18717;48.034;11.186;2023-08-07T02:46:49;8.85;;;8.40;;
32228;SDS011;18717;48.034;11.186;2023-08-07T02:49:16;9.70;;;9.10;;
32228;SDS011;18717;48.034;11.186;2023-08-07T02:51:44;9.73;;;9.02;;
32228;SDS011;18717;48.034;11.186;2023-08-07T02:54:12;10.18;;;9.27;;
32228;SDS011;18717;48.034;11.186;2023-08-07T02:56:40;9.95;;;9.40;;
32228;SDS011;18717;48.034;11.186;2023-08-07T02:59:08;8.95;;;8.38;;
32228;SDS011;18717;48.034;11.186;2023-08-07T03:01:35;9.85;;;9.13;;
32228;SDS011;18717;48.034;11.186;2023-08-07T03:04:04;9.43;;;8.80;;
32228;SDS011;18717;48.034;11.186;2023-08-07T03:06:32;9.30;;;8.75;;
32228;SDS011;18717;48.034;11.186;2023-08-07T03:09:00;9.25;;;8.73;;
32228;SDS011;18717;48.034;11.186;2023-08-07T03:11:28;9.00;;;8.50;;
32228;SDS011;18717;48.034;11.186;2023-08-07T03:13:55;9.40;;;9.00;;
32228;SDS011;18717;48.034;11.186;2023-08-07T03:16:23;8.80;;;8.35;;
32228;SDS011;18717;48.034;11.186;2023-08-07T03:18:51;9.50;;;8.90;;
32228;SDS011;18717;48.034;11.186;2023-08-07T03:21:20;9.60;;;9.00;;
32228;SDS011;18717;48.034;11.186;2023-08-07T03:23:48;9.65;;;8.82;;
32228;SDS011;18717;48.034;11.186;2023-08-07T03:26:15;9.57;;;9.07;;
32228;SDS011;18717;48.034;11.186;2023-08-07T03:28:45;9.20;;;8.60;;
32228;SDS011;18717;48.034;11.186;2023-08-07T03:31:15;9.73;;;8.82;;
32228;SDS011;18717;48.034;11.186;2023-08-07T03:33:43;9.50;;;8.95;;
32228;SDS011;18717;48.034;11.186;2023-08-07T03:36:10;9.70;;;9.10;;
32228;SDS011;18717;48.034;11.186;2023-08-07T03:38:39;9.43;;;8.73;;
32228;SDS011;18717;48.034;11.186;2023-08-07T03:41:07;9.85;;;9.23;;
32228;SDS011;18717;48.034;11.186;2023-08-07T03:43:35;9.82;;;9.13;;
32228;SDS011;18717;48.034;11.186;2023-08-07T03:46:02;9.60;;;9.10;;
32228;SDS011;18717;48.034;11.186;2023-08-07T03:48:30;9.20;;;8.70;;
32228;SDS011;18717;48.034;11.186;2023-08-07T03:51:02;9.05;;;8.55;;
32228;SDS011;18717;48.034;11.186;2023-08-07T03:53:30;9.35;;;8.68;;
32228;SDS011;18717;48.034;11.186;2023-08-07T03:55:59;9.70;;;9.15;;
32228;SDS011;18717;48.034;11.186;2023-08-07T03:58:27;9.07;;;8.43;;
32228;SDS011;18717;48.034;11.186;2023-08-07T04:00:55;9.90;;;9.23;;
32228;SDS011;18717;48.034;11.186;2023-08-07T04:03:23;9.45;;;8.95;;
32228;SDS011;18717;48.034;11.186;2023-08-07T04:05:51;9.75;;;9.00;;
32228;SDS011;18717;48.034;11.186;2023-08-07T04:08:19;9.73;;;9.13;;
32228;SDS011;18717;48.034;11.186;2023-08-07T04:10:57;9.45;;;8.73;;
32228;SDS011;18717;48.034;11.186;2023-08-07T04:13:26;9.25;;;8.65;;
32228;SDS011;18717;48.034;11.186;2023-08-07T04:15:54;9.20;;;8.73;;
32228;SDS011;18717;48.034;11.186;2023-08-07T04:18:22;9.60;;;9.15;;
32228;SDS011;18717;48.034;11.186;2023-08-07T04:20:52;9.23;;;8.73;;
32228;SDS011;18717;48.034;11.186;2023-08-07T04:23:22;9.52;;;8.98;;
32228;SDS011;18717;48.034;11.186;2023-08-07T04:25:51;9.93;;;9.27;;
32228;SDS011;18717;48.034;11.186;2023-08-07T04:28:19;9.73;;;9.13;;
32228;SDS011;18717;48.034;11.186;2023-08-07T04:30:50;9.20;;;8.63;;
32228;SDS011;18717;48.034;11.186;2023-08-07T04:33:18;10.05;;;9.45;;
32228;SDS011;18717;48.034;11.186;2023-08-07T04:35:46;9.73;;;9.20;;
32228;SDS011;18717;48.034;11.186;2023-08-07T04:38:14;9.65;;;9.05;;
32228;SDS011;18717;48.034;11.186;2023-08-07T04:40:45;9.70;;;9.10;;
32228;SDS011;18717;48.034;11.186;2023-08-07T04:43:13;9.20;;;8.70;;
32228;SDS011;18717;48.034;11.186;2023-08-07T04:45:41;9.57;;;8.93;;
32228;SDS011;18717;48.034;11.186;2023-08-07T04:48:12;9.73;;;9.15;;
32228;SDS011;18717;48.034;11.186;2023-08-07T04:50:40;10.10;;;9.13;;
32228;SDS011;18717;48.034;11.186;2023-08-07T04:53:08;10.20;;;9.57;;
32228;SDS011;18717;48.034;11.186;2023-08-07T04:55:36;10.13;;;9.30;;
32228;SDS011;18717;48.034;11.186;2023-08-07T04:58:03;9.27;;;8.77;;
32228;SDS011;18717;48.034;11.186;2023-08-07T05:00:31;10.43;;;9.63;;
32228;SDS011;18717;48.034;11.186;2023-08-07T05:02:59;9.45;;;8.85;;
32228;SDS011;18717;48.034;11.186;2023-08-07T05:05:29;9.38;;;8.75;;
32228;SDS011;18717;48.034;11.186;2023-08-07T05:07:57;9.48;;;8.75;;
32228;SDS011;18717;48.034;11.186;2023-08-07T05:10:26;9.00;;;8.50;;
32228;SDS011;18717;48.034;11.186;2023-08-07T05:12:53;10.35;;;9.65;;
32228;SDS011;18717;48.034;11.186;2023-08-07T05:15:22;9.57;;;9.07;;
32228;SDS011;18717;48.034;11.186;2023-08-07T05:17:51;9.88;;;9.18;;
32228;SDS011;18717;48.034;11.186;2023-08-07T05:20:19;9.90;;;9.15;;
32228;SDS011;18717;48.034;11.186;2023-08-07T05:22:48;9.60;;;9.13;;
32228;SDS011;18717;48.034;11.186;2023-08-07T05:25:15;9.45;;;8.95;;
32228;SDS011;18717;48.034;11.186;2023-08-07T05:27:45;9.93;;;9.20;;
32228;SDS011;18717;48.034;11.186;2023-08-07T05:30:13;9.45;;;8.90;;
32228;SDS011;18717;48.034;11.186;2023-08-07T05:32:41;10.30;;;9.30;;
32228;SDS011;18717;48.034;11.186;2023-08-07T05:35:09;9.40;;;8.70;;
32228;SDS011;18717;48.034;11.186;2023-08-07T05:37:37;9.95;;;9.15;;
32228;SDS011;18717;48.034;11.186;2023-08-07T05:40:06;9.43;;;8.93;;
32228;SDS011;18717;48.034;11.186;2023-08-07T05:42:35;10.50;;;9.65;;
32228;SDS011;18717;48.034;11.186;2023-08-07T05:45:03;9.60;;;9.10;;
32228;SDS011;18717;48.034;11.186;2023-08-07T05:47:32;9.40;;;8.80;;
32228;SDS011;18717;48.034;11.186;2023-08-07T05:49:59;9.10;;;8.60;;
32228;SDS011;18717;48.034;11.186;2023-08-07T05:52:27;10.32;;;9.60;;
32228;SDS011;18717;48.034;11.186;2023-08-07T05:54:55;9.88;;;9.27;;
32228;SDS011;18717;48.034;11.186;2023-08-07T05:57:24;9.60;;;9.07;;
32228;SDS011;18717;48.034;11.186;2023-08-07T05:59:52;9.45;;;8.93;;
32228;SDS011;18717;48.034;11.186;2023-08-07T06:02:19;9.48;;;8.95;;
32228;SDS011;18717;48.034;11.186;2023-08-07T06:04:47;10.70;;;9.90;;
32228;SDS011;18717;48.034;11.186;2023-08-07T06:07:15;10.20;;;9.48;;
32228;SDS011;18717;48.034;11.186;2023-08-07T06:09:43;10.77;;;10.05;;
32228;SDS011;18717;48.034;11.186;2023-08-07T06:12:10;9.65;;;9.10;;
32228;SDS011;18717;48.034;11.186;2023-08-07T06:14:39;10.13;;;9.20;;
32228;SDS011;18717;48.034;11.186;2023-08-07T06:17:07;10.60;;;9.57;;
32228;SDS011;18717;48.034;11.186;2023-08-07T06:19:35;9.63;;;9.13;;
32228;SDS011;18717;48.034;11.186;2023-08-07T06:22:03;10.13;;;9.43;;
32228;SDS011;18717;48.034;11.186;2023-08-07T06:24:31;9.70;;;9.10;;
32228;SDS011;18717;48.034;11.186;2023-08-07T06:26:58;10.63;;;9.63;;
32228;SDS011;18717;48.034;11.186;2023-08-07T06:29:26;9.52;;;9.02;;
32228;SDS011;18717;48.034;11.186;2023-08-07T06:31:55;10.00;;;9.18;;
32228;SDS011;18717;48.034;11.186;2023-08-07T06:34:23;10.02;;;9.32;;
32228;SDS011;18717;48.034;11.186;2023-08-07T06:36:51;10.70;;;10.10;;
32228;SDS011;18717;48.034;11.186;2023-08-07T06:39:19;9.90;;;9.30;;
32228;SDS011;18717;48.034;11.186;2023-08-07T06:41:46;10.07;;;9.35;;
32228;SDS011;18717;48.034;11.186;2023-08-07T06:44:14;9.90;;;9.30;;
32228;SDS011;18717;48.034;11.186;2023-08-07T06:46:42;9.68;;;9.20;;
32228;SDS011;18717;48.034;11.186;2023-08-07T06:49:11;10.73;;;9.70;;
32228;SDS011;18717;48.034;11.186;2023-08-07T06:51:38;10.25;;;9.40;;
32228;SDS011;18717;48.034;11.186;2023-08-07T06:54:06;10.60;;;9.70;;
32228;SDS011;18717;48.034;11.186;2023-08-07T06:56:34;10.27;;;9.77;;
32228;SDS011;18717;48.034;11.186;2023-08-07T06:59:03;10.23;;;9.65;;
32228;SDS011;18717;48.034;11.186;2023-08-07T07:01:31;10.45;;;9.88;;
32228;SDS011;18717;48.034;11.186;2023-08-07T07:03:59;10.32;;;9.65;;
32228;SDS011;18717;48.034;11.186;2023-08-07T07:06:28;11.30;;;10.52;;
32228;SDS011;18717;48.034;11.186;2023-08-07T07:08:56;11.05;;;9.98;;
32228;SDS011;18717;48.034;11.186;2023-08-07T07:11:23;10.05;;;9.55;;
32228;SDS011;18717;48.034;11.186;2023-08-07T07:13:51;10.43;;;9.73;;
32228;SDS011;18717;48.034;11.186;2023-08-07T07:16:19;10.25;;;9.75;;
32228;SDS011;18717;48.034;11.186;2023-08-07T07:18:49;10.10;;;9.48;;
32228;SDS011;18717;48.034;11.186;2023-08-07T07:21:16;10.40;;;9.77;;
32228;SDS011;18717;48.034;11.186;2023-08-07T07:23:45;10.40;;;9.70;;
32228;SDS011;18717;48.034;11.186;2023-08-07T07:26:13;10.18;;;9.63;;
32228;SDS011;18717;48.034;11.186;2023-08-07T07:28:41;10.23;;;9.63;;
32228;SDS011;18717;48.034;11.186;2023-08-07T07:31:08;11.20;;;10.38;;
32228;SDS011;18717;48.034;11.186;2023-08-07T07:33:38;10.45;;;9.73;;
32228;SDS011;18717;48.034;11.186;2023-08-07T07:36:07;10.57;;;9.98;;
32228;SDS011;18717;48.034;11.186;2023-08-07T07:38:42;10.02;;;9.43;;
32228;SDS011;18717;48.034;11.186;2023-08-07T07:41:13;10.55;;;9.90;;
32228;SDS011;18717;48.034;11.186;2023-08-07T07:43:41;10.23;;;9.68;;
32228;SDS011;18717;48.034;11.186;2023-08-07T07:46:09;11.05;;;10.23;;
32228;SDS011;18717;48.034;11.186;2023-08-07T07:48:37;10.82;;;10.07;;
32228;SDS011;18717;48.034;11.186;2023-08-07T07:51:05;10.13;;;9.32;;
32228;SDS011;18717;48.034;11.186;2023-08-07T07:53:32;11.05;;;10.25;;
32228;SDS011;18717;48.034;11.186;2023-08-07T07:56:00;10.20;;;9.70;;
32228;SDS011;18717;48.034;11.186;2023-08-07T07:58:29;10.27;;;9.60;;
32228;SDS011;18717;48.034;11.186;2023-08-07T08:00:57;9.75;;;9.27;;
32228;SDS011;18717;48.034;11.186;2023-08-07T08:03:25;10.43;;;9.70;;
32228;SDS011;18717;48.034;11.186;2023-08-07T08:05:53;10.35;;;9.82;;
32228;SDS011;18717;48.034;11.186;2023-08-07T08:08:21;10.40;;;9.80;;
32228;SDS011;18717;48.034;11.186;2023-08-07T08:10:49;10.90;;;10.07;;
32228;SDS011;18717;48.034;11.186;2023-08-07T08:13:17;10.63;;;9.75;;
32228;SDS011;18717;48.034;11.186;2023-08-07T08:15:46;10.30;;;9.70;;
32228;SDS011;18717;48.034;11.186;2023-08-07T08:18:14;10.10;;;9.50;;
32228;SDS011;18717;48.034;11.186;2023-08-07T08:20:42;10.68;;;9.80;;
32228;SDS011;18717;48.034;11.186;2023-08-07T08:23:09;10.38;;;9.82;;
32228;SDS011;18717;48.034;11.186;2023-08-07T08:25:37;10.50;;;9.70;;
32228;SDS011;18717;48.034;11.186;2023-08-07T08:28:05;11.00;;;10.40;;
32228;SDS011;18717;48.034;11.186;2023-08-07T08:30:33;10.65;;;9.95;;
32228;SDS011;18717;48.034;11.186;2023-08-07T08:33:02;10.15;;;9.55;;
32228;SDS011;18717;48.034;11.186;2023-08-07T08:35:31;10.60;;;10.10;;
32228;SDS011;18717;48.034;11.186;2023-08-07T08:37:59;10.20;;;9.60;;
32228;SDS011;18717;48.034;11.186;2023-08-07T08:40:27;11.00;;;10.40;;
32228;SDS011;18717;48.034;11.186;2023-08-07T08:42:56;10.75;;;10.05;;
32228;SDS011;18717;48.034;11.186;2023-08-07T08:45:24;10.30;;;9.70;;
32228;SDS011;18717;48.034;11.186;2023-08-07T08:47:54;10.40;;;9.80;;
32228;SDS011;18717;48.034;11.186;2023-08-07T08:50:25;10.95;;;10.18;;
32228;SDS011;18717;48.034;11.186;2023-08-07T08:52:53;11.00;;;10.40;;
32228;SDS011;18717;48.034;11.186;2023-08-07T08:55:23;10.27;;;9.75;;
32228;SDS011;18717;48.034;11.186;2023-08-07T08:57:51;10.85;;;9.95;;
32228;SDS011;18717;48.034;11.186;2023-08-07T09:00:20;11.30;;;10.70;;
32228;SDS011;18717;48.034;11.186;2023-08-07T09:02:49;10.13;;;9.55;;
32228;SDS011;18717;48.034;11.186;2023-08-07T09:05:17;11.23;;;10.52;;
32228;SDS011;18717;48.034;11.186;2023-08-07T09:07:48;11.32;;;10.35;;
32228;SDS011;18717;48.034;11.186;2023-08-07T09:10:16;10.43;;;9.93;;
32228;SDS011;18717;48.034;11.186;2023-08-07T09:12:45;11.20;;;10.57;;
32228;SDS011;18717;48.034;11.186;2023-08-07T09:15:20;11.23;;;10.30;;
32228;SDS011;18717;48.034;11.186;2023-08-07T09:17:49;11.25;;;10.45;;
32228;SDS011;18717;48.034;11.186;2023-08-07T09:20:17;11.23;;;10.63;;
32228;SDS011;18717;48.034;11.186;2023-08-07T09:22:45;11.52;;;10.77;;
32228;SDS011;18717;48.034;11.186;2023-08-07T09:25:15;11.00;;;10.25;;
32228;SDS011;18717;48.034;11.186;2023-08-07T09:27:54;11.07;;;10.10;;
32228;SDS011;18717;48.034;11.186;2023-08-07T09:30:25;11.48;;;10.63;;
32228;SDS011;18717;48.034;11.186;2023-08-07T09:32:53;11.37;;;10.53;;
32228;SDS011;18717;48.034;11.186;2023-08-07T09:35:21;10.35;;;9.85;;
32228;SDS011;18717;48.034;11.186;2023-08-07T09:37:49;10.77;;;10.07;;
32228;SDS011;18717;48.034;11.186;2023-08-07T09:40:19;12.30;;;11.60;;
32228;SDS011;18717;48.034;11.186;2023-08-07T09:42:49;10.88;;;10.27;;
32228;SDS011;18717;48.034;11.186;2023-08-07T09:45:21;11.55;;;10.65;;
32228;SDS011;18717;48.034;11.186;2023-08-07T09:47:58;10.98;;;10.38;;
32228;SDS011;18717;48.034;11.186;2023-08-07T09:50:26;11.23;;;10.55;;
32228;SDS011;18717;48.034;11.186;2023-08-07T09:52:55;10.23;;;9.63;;
32228;SDS011;18717;48.034;11.186;2023-08-07T09:55:25;10.60;;;10.00;;
32228;SDS011;18717;48.034;11.186;2023-08-07T09:57:53;10.68;;;10.05;;
32228;SDS011;18717;48.034;11.186;2023-08-07T10:00:21;10.00;;;9.50;;
32228;SDS011;18717;48.034;11.186;2023-08-07T10:02:49;11.02;;;10.52;;
32228;SDS011;18717;48.034;11.186;2023-08-07T10:05:18;10.50;;;10.00;;
32228;SDS011;18717;48.034;11.186;2023-08-07T10:07:46;11.27;;;10.52;;
32228;SDS011;18717;48.034;11.186;2023-08-07T10:10:14;11.45;;;10.75;;
32228;SDS011;18717;48.034;11.186;2023-08-07T10:12:44;11.00;;;10.40;;
32228;SDS011;18717;48.034;11.186;2023-08-07T10:15:14;11.15;;;10.35;;
32228;SDS011;18717;48.034;11.186;2023-08-07T10:17:42;11.43;;;10.70;;
32228;SDS011;18717;48.034;11.186;2023-08-07T10:20:11;11.10;;;10.50;;
32228;SDS011;18717;48.034;11.186;2023-08-07T10:22:41;10.90;;;10.30;;
32228;SDS011;18717;48.034;11.186;2023-08-07T10:25:09;11.07;;;10.40;;
32228;SDS011;18717;48.034;11.186;2023-08-07T10:27:38;11.40;;;10.68;;
32228;SDS011;18717;48.034;11.186;2023-08-07T10:30:10;10.55;;;9.95;;
32228;SDS011;18717;48.034;11.186;2023-08-07T10:35:07;11.02;;;10.32;;
32228;SDS011;18717;48.034;11.186;2023-08-07T10:37:38;11.65;;;10.57;;
32228;SDS011;18717;48.034;11.186;2023-08-07T10:40:07;11.63;;;10.93;;
32228;SDS011;18717;48.034;11.186;2023-08-07T10:43:16;11.05;;;10.32;;
32228;SDS011;18717;48.034;11.186;2023-08-07T10:46:04;10.65;;;10.15;;
32228;SDS011;18717;48.034;11.186;2023-08-07T10:58:00;10.95;;;10.40;;
32228;SDS011;18717;48.034;11.186;2023-08-07T11:10:24;11.77;;;11.20;;
32228;SDS011;18717;48.034;11.186;2023-08-07T11:13:22;11.75;;;11.20;;
32228;SDS011;18717;48.034;11.186;2023-08-07T11:16:19;11.93;;;11.10;;
32228;SDS011;18717;48.034;11.186;2023-08-07T11:24:49;11.25;;;10.55;;
32228;SDS011;18717;48.034;11.186;2023-08-07T11:31:53;11.95;;;10.93;;
32228;SDS011;18717;48.034;11.186;2023-08-07T11:35:08;11.57;;;11.07;;
32228;SDS011;18717;48.034;11.186;2023-08-07T11:37:45;11.00;;;10.48;;
32228;SDS011;18717;48.034;11.186;2023-08-07T11:40:23;11.63;;;11.02;;
32228;SDS011;18717;48.034;11.186;2023-08-07T11:42:50;12.35;;;11.80;;
32228;SDS011;18717;48.034;11.186;2023-08-07T11:45:18;11.75;;;11.10;;
32228;SDS011;18717;48.034;11.186;2023-08-07T11:47:46;12.32;;;11.80;;
32228;SDS011;18717;48.034;11.186;2023-08-07T11:50:13;11.65;;;10.85;;
32228;SDS011;18717;48.034;11.186;2023-08-07T11:52:44;12.02;;;11.32;;
32228;SDS011;18717;48.034;11.186;2023-08-07T11:55:21;11.90;;;11.30;;
32228;SDS011;18717;48.034;11.186;2023-08-07T11:57:59;12.13;;;11.52;;
32228;SDS011;18717;48.034;11.186;2023-08-07T12:00:38;12.48;;;11.88;;
32228;SDS011;18717;48.034;11.186;2023-08-07T12:03:27;12.35;;;11.75;;
32228;SDS011;18717;48.034;11.186;2023-08-07T12:06:02;11.48;;;10.93;;
32228;SDS011;18717;48.034;11.186;2023-08-07T12:08:33;11.30;;;10.77;;
32228;SDS011;18717;48.034;11.186;2023-08-07T12:11:07;11.88;;;11.27;;
32228;SDS011;18717;48.034;11.186;2023-08-07T12:13:39;11.73;;;11.10;;
32228;SDS011;18717;48.034;11.186;2023-08-07T12:16:24;11.70;;;11.02;;
32228;SDS011;18717;48.034;11.186;2023-08-07T12:19:11;11.57;;;10.98;;
32228;SDS011;18717;48.034;11.186;2023-08-07T12:21:47;12.63;;;11.77;;
32228;SDS011;18717;48.034;11.186;2023-08-07T12:24:27;11.98;;;11.38;;
32228;SDS011;18717;48.034;11.186;2023-08-07T12:26:59;11.63;;;11.13;;
32228;SDS011;18717;48.034;11.186;2023-08-07T12:29:29;12.23;;;11.43;;
32228;SDS011;18717;48.034;11.186;2023-08-07T12:32:04;12.93;;;12.00;;
32228;SDS011;18717;48.034;11.186;2023-08-07T12:34:49;11.73;;;11.13;;
32228;SDS011;18717;48.034;11.186;2023-08-07T12:37:42;11.43;;;10.70;;
32228;SDS011;18717;48.034;11.186;2023-08-07T13:07:25;10.88;;;10.38;;
32228;SDS011;18717;48.034;11.186;2023-08-07T13:09:53;11.43;;;10.73;;
32228;SDS011;18717;48.034;11.186;2023-08-07T13:12:22;11.10;;;10.60;;
32228;SDS011;18717;48.034;11.186;2023-08-07T13:14:49;11.32;;;10.82;;
32228;SDS011;18717;48.034;11.186;2023-08-07T13:17:17;11.90;;;11.00;;
32228;SDS011;18717;48.034;11.186;2023-08-07T13:19:45;12.20;;;11.40;;
32228;SDS011;18717;48.034;11.186;2023-08-07T13:22:13;11.70;;;10.98;;
32228;SDS011;18717;48.034;11.186;2023-08-07T13:24:42;11.68;;;10.88;;
32228;SDS011;18717;48.034;11.186;2023-08-07T13:27:10;11.52;;;10.52;;
32228;SDS011;18717;48.034;11.186;2023-08-07T13:29:37;11.13;;;10.63;;
32228;SDS011;18717;48.034;11.186;2023-08-07T13:32:05;12.00;;;11.20;;
32228;SDS011;18717;48.034;11.186;2023-08-07T13:34:35;11.35;;;10.85;;
32228;SDS011;18717;48.034;11.186;2023-08-07T13:37:03;11.20;;;10.70;;
32228;SDS011;18717;48.034;11.186;2023-08-07T13:39:31;11.23;;;10.57;;
32228;SDS011;18717;48.034;11.186;2023-08-07T13:42:00;11.38;;;10.77;;
32228;SDS011;18717;48.034;11.186;2023-08-07T13:44:28;11.15;;;10.55;;
32228;SDS011;18717;48.034;11.186;2023-08-07T13:46:56;11.68;;;10.98;;
32228;SDS011;18717;48.034;11.186;2023-08-07T13:49:24;11.60;;;10.70;;
32228;SDS011;18717;48.034;11.186;2023-08-07T13:51:51;11.85;;;11.15;;
32228;SDS011;18717;48.034;11.186;2023-08-07T13:54:19;11.95;;;11.00;;
32228;SDS011;18717;48.034;11.186;2023-08-07T13:56:47;11.40;;;10.90;;
32228;SDS011;18717;48.034;11.186;2023-08-07T13:59:16;11.50;;;11.00;;
32228;SDS011;18717;48.034;11.186;2023-08-07T14:01:43;11.60;;;10.82;;
32228;SDS011;18717;48.034;11.186;2023-08-07T14:04:11;11.25;;;10.52;;
32228;SDS011;18717;48.034;11.186;2023-08-07T14:06:40;11.30;;;10.70;;
32228;SDS011;18717;48.034;11.186;2023-08-07T14:09:09;11.20;;;10.70;;
32228;SDS011;18717;48.034;11.186;2023-08-07T14:11:37;11.07;;;10.57;;
32228;SDS011;18717;48.034;11.186;2023-08-07T14:14:05;12.25;;;11.52;;
32228;SDS011;18717;48.034;11.186;2023-08-07T14:16:34;11.35;;;10.75;;
32228;SDS011;18717;48.034;11.186;2023-08-07T14:19:04;11.77;;;11.18;;
32228;SDS011;18717;48.034;11.186;2023-08-07T14:21:32;11.40;;;10.55;;
32228;SDS011;18717;48.034;11.186;2023-08-07T14:23:59;11.60;;;11.10;;
32228;SDS011;18717;48.034;11.186;2023-08-07T14:26:27;10.98;;;10.40;;
32228;SDS011;18717;48.034;11.186;2023-08-07T14:28:55;11.50;;;10.90;;
32228;SDS011;18717;48.034;11.186;2023-08-07T14:31:22;11.65;;;11.05;;
32228;SDS011;18717;48.034;11.186;2023-08-07T14:33:52;11.88;;;10.95;;
32228;SDS011;18717;48.034;11.186;2023-08-07T14:36:20;11.43;;;10.70;;
32228;SDS011;18717;48.034;11.186;2023-08-07T14:38:48;11.50;;;10.90;;
32228;SDS011;18717;48.034;11.186;2023-08-07T14:41:16;11.25;;;10.75;;
32228;SDS011;18717;48.034;11.186;2023-08-07T14:43:44;11.02;;;10.43;;
32228;SDS011;18717;48.034;11.186;2023-08-07T14:46:13;11.35;;;10.70;;
32228;SDS011;18717;48.034;11.186;2023-08-07T14:48:40;11.55;;;10.85;;
32228;SDS011;18717;48.034;11.186;2023-08-07T14:51:09;11.10;;;10.40;;
32228;SDS011;18717;48.034;11.186;2023-08-07T14:53:37;11.70;;;11.05;;
32228;SDS011;18717;48.034;11.186;2023-08-07T14:56:05;11.35;;;10.50;;
32228;SDS011;18717;48.034;11.186;2023-08-07T14:58:34;11.85;;;11.02;;
32228;SDS011;18717;48.034;11.186;2023-08-07T15:01:02;11.43;;;10.73;;
32228;SDS011;18717;48.034;11.186;2023-08-07T15:03:30;10.68;;;10.15;;
32228;SDS011;18717;48.034;11.186;2023-08-07T15:05:57;10.82;;;10.32;;
32228;SDS011;18717;48.034;11.186;2023-08-07T15:08:26;11.00;;;10.40;;
32228;SDS011;18717;48.034;11.186;2023-08-07T15:10:54;11.15;;;10.55;;
32228;SDS011;18717;48.034;11.186;2023-08-07T15:13:22;10.57;;;10.15;;
32228;SDS011;18717;48.034;11.186;2023-08-07T15:15:50;10.45;;;10.02;;
32228;SDS011;18717;48.034;11.186;2023-08-07T15:18:18;10.80;;;10.30;;
32228;SDS011;18717;48.034;11.186;2023-08-07T15:20:47;10.45;;;9.95;;
32228;SDS011;18717;48.034;11.186;2023-08-07T15:23:15;10.65;;;10.20;;
32228;SDS011;18717;48.034;11.186;2023-08-07T15:25:44;10.43;;;9.93;;
32228;SDS011;18717;48.034;11.186;2023-08-07T15:28:12;10.52;;;10.02;;
32228;SDS011;18717;48.034;11.186;2023-08-07T15:30:39;10.90;;;10.40;;
32228;SDS011;18717;48.034;11.186;2023-08-07T15:33:14;10.45;;;9.95;;